Regional Weather Synopsis
Issued by NWS Denver/Boulder, CO

Home | Current Version | Previous Version | Text Only | Print | Product List | Glossary On
Versions: 1 2 3 4 5 6 7 8 9 10 11 12 13 14 15 16 17 18 19 20 21 22 23 24 25 26 27 28 29 30 31 32 33 34 35 36 37 38 39 40 41 42 43 44 45 46 47 48 49 50
000
NZUS99 KBOU 222228
SYNBOU

Hot-Air Balloon Forecast for Colorado
National Weather Service Denver/Boulder, Colorado
1625 MDT Thursday, August 22, 2019


* * * * * Northeast Colorado * * * * *

SPECI KFNL 222203Z AUTO 25011KT 10SM FEW100 SCT120 27/13 A2993 RMK AO2
       LTG DSNT E AND SW TSE2157
METAR KFNL 222156Z AUTO 26007KT 10SM VCTS SCT110 27/14 A2993 RMK AO2 LTG
       DSNT E AND SW TSB42 SLP070 T02720139
SPECI KFNL 222148Z AUTO 28007KT 10SM VCTS FEW120 27/14 A2994 RMK AO2 LTG
       DSNT E AND SW TSB42

METAR KGXY 222156Z AUTO 34011KT 10SM 31/14 A2988 RMK AO2 LTG DSNT E AND
       SE AND W SLP070 T03110144 $
METAR KGXY 222056Z AUTO 31012KT 10SM 29/16 A2992 RMK AO2 SLP084
       T02940161 56020 $
METAR KGXY 221956Z AUTO 12006G14KT 7SM 31/15 A2992 RMK AO2 SLP081
       T03060150 $

METAR KLMO 222215Z AUTO 31018G31KT 7SM -RA SCT120 27/06 A2995 RMK AO2
       T02740058
METAR KLMO 222155Z AUTO 30009G14KT 7SM CLR 29/12 A2995 RMK AO2
       T02860115
METAR KLMO 222135Z AUTO 35004KT 10SM CLR 30/10 A2995 RMK AO2
       T02980096

METAR KBDU 222212Z AUTO 32013G27KT 10SM VCTS CLR 29/07 A2994 RMK AO2 LTG
       DSNT NE AND NW
METAR KBDU 222148Z AUTO 34008KT 10SM VCTS CLR 30/08 A2993 RMK AO2 LTG
       DSNT NW
METAR KBDU 222130Z AUTO 03009KT 10SM CLR 30/10 A2994 RMK AO2 LTG DSNT
       NW

METAR KEIK 222212Z AUTO 36007KT 10SM 31/07 A2997 RMK AO2 LTG DSNT W THRU
       NE T03060071
METAR KEIK 222154Z AUTO 35006KT 10SM 29/08 A2997 RMK AO2 LTG DSNT W
        AND NW T02900080
METAR KEIK 222130Z AUTO 36008KT 10SM 29/10 A2997 RMK AO2 LTG DSNT W
       T02920099

KBJC 222105Z 2221/2318 24014KT P6SM SCT090 SCT120 BKN200
      TEMPO 2221/2224 VRB20G30KT BKN090
     FM230000 30012KT P6SM FEW090 BKN220
     FM230700 26009KT P6SM SCT130 BKN200
     FM231700 31007KT P6SM FEW100 SCT120 BKN170
METAR KBJC 222247Z 21011KT 10SM SCT070 BKN100 29/02 A2996
METAR KBJC 222045Z 20023G31KT 20SM SCT070 BKN100 30/01 A2998
METAR KBJC 222010Z 26013G17KT 20SM SCT070 BKN100 29/05 A2998

KDEN 222159Z 2222/2324 20017G26KT P6SM SCT090 SCT120 BKN200
      TEMPO 2223/2301 VRB20G30KT BKN090
     FM230100 14012KT P6SM FEW090 BKN220
     FM230700 22010KT P6SM SCT130 BKN200
     FM231700 26007KT P6SM FEW100 SCT120 BKN170
     FM232000 31010KT P6SM VCTS FEW090CB BKN150
METAR KDEN 222153Z 18020G33KT 10SM SCT090 SCT120 BKN220 32/02 A2994 RMK
       AO2 PK WND 18033/2145 LTG DSNT NE SLP052 T03170017
METAR KDEN 222053Z 23018G23KT 10SM SCT090 SCT120 BKN220 32/01 A2995 RMK
       AO2 SLP052 VIRGA DSNT SE-S-W T03170011 55014
METAR KDEN 221953Z 26013KT 10SM SCT090 SCT120 SCT220 33/08 A2994 RMK
        AO2 LTG DSNT S SLP052 VIRGA DSNT W T03280083

METAR KFTG 222157Z 18021KT 10SM BKN120 BKN220 32/02 A2997
METAR KFTG 222055Z 21021G26KT 10SM BKN120 BKN220 33/03 A2997
METAR KFTG 222025Z 25014KT 10SM BKN120 BKN220 34/05 A2997

KBKF 221842Z 2218/2323 20009KT 9999 SCT100 QNH2998INS
     BECMG 2219/2220 20009KT 9999 VCTS SCT100CB QNH2997INS
     TEMPO 2220/2301 VRB25G35KT 8000 -TSRA BKN080CB
     BECMG 2302/2303 19009KT 9999 NSW SCT120 QNH3002INS
     BECMG 2317/2318 26009KT 9999 SCT150 QNH3004INS
     BECMG 2320/2321 28009KT 9999 VCTS SCT100CB QNH3005INS TX32/2221Z
     TN15/2311Z
METAR KBKF 222158Z 18016G24KT 10SM FEW080 SCT140 BKN200 29/03 A2996 RMK
       AO2A PK WND 16029/19 LTG DSNT N SLP070 T02910031
METAR KBKF 222058Z 19014KT 10SM BKN100 BKN200 29/05 A2999 RMK AO2A
       SLP078 T02930054 55005

KAPA 222102Z 2221/2318 16010KT P6SM SCT080 SCT120 BKN200
      TEMPO 2222/2224 VRB20G30KT BKN080
     FM230000 14010KT P6SM FEW090 BKN220
     FM230600 19008KT P6SM SCT130 BKN200
     FM231700 26007KT P6SM FEW100 SCT120 BKN170
METAR KAPA 222153Z 17011G24KT 10SM SCT100 SCT140 BKN200 29/04 A3000 RMK
       AO2 PK WND 20034/2117 WSHFT 2130 SLP085 T02890044
SPECI KAPA 222150Z 18013KT 10SM SCT100 SCT140 BKN200 29/05 A3000 RMK AO2
       PK WND 20034/2117 WSHFT 2130
METAR KAPA 222053Z 19009KT 10SM FEW040 FEW075 SCT130 BKN220 29/04 A3003
       RMK AO2 SLP088 T02940039 53002

METAR KMNH 222206Z AUTO 12004KT 10SM -DZ SCT075 SCT100 BKN120 23/03
       A3015 RMK AO2 LTG DSNT N E AND SW
METAR KMNH 222148Z AUTO 14006G14KT 10SM SCT033 SCT070 OVC100 22/02 A3015
       RMK AO2 LTG DSNT E
METAR KMNH 222124Z AUTO 02005KT 10SM SCT085 BKN110 22/02 A3017 RMK AO2
       LTG DSNT NE

METAR KFMM 222215Z AUTO 18014KT 10SM VCTS CLR 29/10 A2989 RMK AO2 LTG
       DSNT ALQS T02860100
METAR KFMM 222155Z AUTO 16009G15KT 10SM CLR 29/11 A2989 RMK AO2
       T02910109
METAR KFMM 222135Z AUTO 15011G19KT 10SM CLR 31/10 A2989 RMK AO2
       T03120098

METAR KSTK 222220Z AUTO 14016G22KT 10SM CLR 31/17 A2984 RMK AO2 LTG DSNT
       W AND NW
METAR KSTK 222200Z AUTO 15013G19KT 10SM SCT060 31/18 A2987 RMK AO2
METAR KSTK 222140Z AUTO 16015G22KT 10SM SCT060 31/17 A2989 RMK AO2

METAR KAKO 222153Z AUTO 17018G31KT 10SM CLR 31/13 A2992 RMK AO2 PK WND
       15031/2117 SLP071 T03060128
METAR KAKO 222053Z AUTO 17020G27KT 10SM FEW055 31/14 A2995 RMK AO2 PK
       WND 17029/1955 SLP078 T03060144
METAR KAKO 221953Z AUTO 17017G25KT 10SM FEW050 29/16 A2998 RMK AO2 PK
       WND 18027/1912 SLP084 T02890156

METAR KLIC 222155Z AUTO 17014G25KT 10SM CLR 26/11 A3000 RMK AO2 PK WND
       18028/2057 LTG DSNT W SLP083 T02610111
METAR KLIC 222055Z AUTO 18016G26KT 10SM CLR 28/12 A3002 RMK AO2 PK WND
       14033/2025 SLP082 T02780117 56020
METAR KLIC 221955Z AUTO 17017G28KT 10SM CLR 27/13 A3003 RMK AO2 PK WND
       17029/1921 SLP087 T02720128

METAR KHEQ 222210Z AUTO 15014G19KT 10SM SCT055 30/16 A2992 RMK AO2 LTG
       DSNT W
METAR KHEQ 222150Z AUTO 14014G20KT 10SM SCT049 30/16 A2992 RMK AO2
METAR KHEQ 222130Z AUTO 13016G19KT 10SM SCT047 30/18 A2992 RMK AO2

METAR K2V6 222219Z AUTO 16011G18KT 10SM SCT055 28/M05 A2991 RMK AO2 LTG
       DSNT W AND NW
METAR K2V6 222159Z AUTO 16016G20KT 10SM SCT055 28/M05 A2993 RMK AO2
METAR K2V6 222134Z AUTO 15012G20KT 10SM SCT055 28/M03 A2993 RMK AO2

METAR K2V5 222235Z AUTO 15017G22KT 10SM OVC017 30/15 A2991 RMK AO2 LTG
       DSNT W AND NW
METAR K2V5 222215Z AUTO 16016G26KT 10SM OVC017 30/15 A2992 RMK AO2
METAR K2V5 222155Z AUTO 16016G21KT 10SM OVC017 30/13 A2993 RMK AO2

METAR KITR 222153Z AUTO 16017G27KT 10SM CLR 28/16 A2997 RMK AO2 PK WND
       13032/2100 SLP090 T02780156
METAR KITR 222053Z AUTO 16016G29KT 10SM CLR 28/15 A2997 RMK AO2 PK WND
       14029/2048 SLP092 T02830150 58019
METAR KITR 221953Z AUTO 16013G24KT 10SM CLR 28/16 A3000 RMK AO2 PK WND
       16029/1927 SLP102 T02780156

Sunrise/Sunset for 08/22/2019
Fort Collins - 06:17:49 MDT / 19:48:33 MDT
Denver       - 06:18:38 MDT / 19:46:53 MDT
Sterling     - 06:10:15 MDT / 19:41:17 MDT

Denver/Boulder (KFTG) 08/22/19 22:18 UTC
Radar VAD winds      Height      Dir/Spd(kt)
                  40000 FT MSL...282/037
                  35000 FT MSL...271/040
                  30000 FT MSL...290/030
                  28000 FT MSL...251/024
                  26000 FT MSL...251/025
                  25000 FT MSL...254/024
                  24000 FT MSL...259/022
                  22900 FT MSL...279/035
                  22000 FT MSL...272/018
                  20000 FT MSL...275/013
                  19500 FT MSL...270/013
                  19000 FT MSL...252/013
                  18000 FT MSL...195/022
                  17000 FT MSL...195/023
                  16000 FT MSL...177/026
                  15000 FT MSL...177/029
                  12000 FT MSL...229/018
                  11200 FT MSL...236/016
                  11000 FT MSL...239/017
                  10000 FT MSL...240/018
                  10000 FT MSL...247/016
                   9000 FT MSL...239/017
                   8900 FT MSL...222/017
                   8100 FT MSL...216/016
                   8000 FT MSL...218/017
                   7300 FT MSL...215/017
                   7000 FT MSL...212/018
                   6600 FT MSL...210/017
                   6200 FT MSL...184/019
                   6000 FT MSL...188/019
                   5900 FT MSL...188/020

Denver/Boulder Aviation Discussion
Issued at 2059 UTC Thursday, August 22, 2019

.AVIATION...(For the 18Z TAFS through 18Z Friday afternoon)
Issued at 226 PM MDT Thu Aug 22 2019
Stronger convection has already pushed east of the terminals which
has already mixed out the higher low level moisture. Any remaining
threat will be gusty winds with weakening showers coming off the
foothills. So have removed the TS from the local terminals but
left in a tempo for gusty winds through 00Z. No impacts expected
from later this evening and overnight.


* * * * * Southeast Colorado * * * * *

METAR K4BM 222212Z AUTO 30004KT 10SM SCT080 BKN100 BKN120 16/M03 A3048
       RMK AO2 LTG DSNT N SE AND NW
METAR K4BM 222153Z AUTO 03003KT 10SM BKN090 OVC100 16/M03 A3049 RMK AO2
       LTG DSNT NE AND S
METAR K4BM 222135Z AUTO 25003KT 10SM BKN090 OVC110 16/M03 A3049 RMK
       AO2

METAR KAFF 222158Z 30014G23KT 10SM -TSRA BKN080 BKN110CB OVC130 21/12
       A3009 RMK AO2A PK WND 32026/42 SHRAB45 TSB17 TS 2W MOV E
       PRESRR SLP102 P0001 T02060123
SPECI KAFF 222145Z 33012G24KT 10SM -TSRA BKN110CB OVC130 24/08 A3007 RMK
       AO2A TS 3W MOV E SLP090
SPECI KAFF 222119Z 08007KT 10SM TS SCT110 BKN140CB BKN200 28/07 A3006
       RMK AO2A TS 4NW MOV NE SLP080

KCOS 221808Z 2218/2318 16012G22KT P6SM SCT110 SCT250
     FM222200 13012KT P6SM VCTS SCT100CB BKN150
      TEMPO 2222/2301 VRB15G30KT -TSRA BKN080CB
     FM230200 34009KT P6SM SCT100 BKN150
     FM230600 35007KT P6SM SCT150
     FM231600 15010KT P6SM SCT150
METAR KCOS 222154Z 17012KT 10SM SCT100 BKN150 BKN180 27/08 A3005 RMK AO2
       LTG DSNT SW-N SLP084 CB DSNT SW AND NW MOV E T02720078
METAR KCOS 222054Z 17013KT 10SM SCT100 SCT150 BKN200 27/07 A3006 RMK
        AO2 SLP087 CB DSNT N MOV E T02720067 56014
METAR KCOS 221954Z 16013G20KT 10SM SCT100 SCT200 27/08 A3007 RMK AO2 LTG
       DSNT NW SLP090 CB DSNT NW-N MOV E T02720083

METAR KABH 222158Z AUTO 17011KT 10SM FEW170 FEW190 28/08 A3006 RMK AO2
       LTG DSNT N SLP097 T02750078
METAR KABH 222058Z AUTO 17013G19KT 10SM CLR 28/08 A3007 RMK AO2 SLP100
       T02810082 57016
METAR KABH 221958Z AUTO 17015KT 10SM CLR 28/08 A3009 RMK AO2 LTG DSNT SW
       SLP107 T02800077

METAR KFLY 222215Z AUTO 00000KT 10SM CLR 24/06 A3013 RMK AO2 LTG DSNT
       ALQS T02410055
METAR KFLY 222155Z AUTO 10004KT 10SM CLR 25/06 A3013 RMK AO2 LTG DSNT NW
       THRU NE T02460057
METAR KFLY 222135Z AUTO 16011G18KT 10SM SCT120 27/06 A3012 RMK AO2
       T02670060

KFCS 222102Z 2221/2403 16012KT 9999 VCTS SCT100CB QNH3000INS
      TEMPO 2221/2222 VRB15G25KT -TSRA BKN080CB
      TEMPO 2222/2301 VRB25G35KT -TSRAGR BKN080CB
      BECMG 2302/2303 VRB06KT 9999 NSW SCT100 QNH3007INS
      BECMG 2315/2316 30009KT 9999 SCT120 QNH3008INS
      BECMG 2317/2318 15009KT 9999 SCT100 QNH3005INS
      BECMG 2320/2321 16009KT 9999 BKN100 QNH3005INS
      TEMPO 2321/2324 VRB15G25KT VCTS BKN080CB
      BECMG 2402/2403 VRB06KT 9999 SCT090 QNH3011INS TX32/2222Z
      TN13/2311Z
METAR KFCS 222158Z AUTO 04003KT 10SM FEW120 28/07 A3001 RMK AO2 LTG DSNT
       SW SLP101 T02810073 $
METAR KFCS 222058Z AUTO 16012G21KT 10SM FEW210 31/07 A3002 RMK AO2
       SLP099 T03070072 57016 $

KPUB 222037Z 2221/2318 12010G20KT P6SM VCTS SCT100CB BKN150
     FM230300 34008KT P6SM SCT100 BKN150
     FM230800 VRB05KT P6SM SCT150
METAR KPUB 222153Z AUTO 12013KT 10SM CLR 34/09 A2990 RMK AO2 LTG DSNT W
       SLP057 T03390089
METAR KPUB 222053Z AUTO 12014G18KT 10SM CLR 33/10 A2993 RMK AO2 LTG DSNT
       SW SLP062 T03330100 56029
METAR KPUB 221953Z 12010G19KT 10SM CLR 32/11 A2995 RMK AO2 SLP073
       T03170111


METAR KTAD 222154Z AUTO 18005KT 10SM CLR 32/02 A3001 RMK AO2 SLP072
       T03170017
METAR KTAD 222054Z AUTO 01005KT 10SM CLR 31/03 A3002 RMK AO2 LTG DSNT SW
       SLP077 T03060028 56023
METAR KTAD 221954Z AUTO 00000KT 10SM CLR 31/04 A3004 RMK AO2 SLP086
       T03060039

METAR KLHX 222153Z AUTO 11013G20KT 10SM CLR 34/11 A2989 RMK AO2 SLP050
       T03440111
METAR KLHX 222053Z AUTO 13011G21KT 10SM CLR 34/10 A2991 RMK AO2 SLP059
       T03390100 58032
METAR KLHX 221953Z AUTO 13013G20KT 10SM CLR 32/11 A2996 RMK AO2 SLP078
       T03220111

METAR KLAA 222153Z AUTO 16016G31KT 10SM CLR 33/13 A2989 RMK AO2 PK WND
       14031/2150 SLP061 T03280133
METAR KLAA 222053Z AUTO 15014G25KT 10SM CLR 33/13 A2991 RMK AO2 PK WND
       15028/2009 SLP069 T03280128 58024
METAR KLAA 221953Z AUTO 13009G23KT 10SM CLR 32/13 A2994 RMK AO2 SLP083
       T03170128


Sunrise/Sunset for 08/22/2019
Burlington - 06:08:30 MDT / 19:35:29 MDT
Pueblo     - 06:19:24 MDT / 19:43:22 MDT
Lamar      - 06:11:39 MDT / 19:35:06 MDT

Pueblo (KPUX) 08/22/19 22:14 UTC
Radar VAD winds      Height      Dir/Spd(kt)
                  40000 FT MSL...287/039
                  35000 FT MSL...289/028
                  33000 FT MSL...287/028
                  31000 FT MSL...280/019
                  30000 FT MSL...276/017
                  27000 FT MSL...260/015
                  25000 FT MSL...258/015
                  24000 FT MSL...263/016
                  23000 FT MSL...266/018
                  22000 FT MSL...268/016
                  21000 FT MSL...250/019
                  20000 FT MSL...252/021
                  19000 FT MSL...250/021
                  16000 FT MSL...182/019
                  15000 FT MSL...257/024
                  14000 FT MSL...318/014
                  13000 FT MSL...299/016
                  12400 FT MSL...297/015
                  12000 FT MSL...292/012
                  11000 FT MSL...263/007
                  10900 FT MSL...236/007
                  10000 FT MSL...209/009
                   9700 FT MSL...168/010
                   9000 FT MSL...155/013
                   8700 FT MSL...152/011
                   8000 FT MSL...136/013
                   7800 FT MSL...143/012
                   7100 FT MSL...136/013
                   7000 FT MSL...126/013
                   6400 FT MSL...136/012
                   6000 FT MSL...123/012
                   5900 FT MSL...120/012
                   5700 FT MSL...127/012

Pueblo Aviation Discussion
Issued at 2043 UTC Thursday, August 22, 2019

.AVIATION...(For the 00Z TAFS through 00Z Friday evening)
Issued at 243 PM MDT Thu Aug 22 2019
VFR is expected during the next 24 hours at all 3 taf sites, KPUB,
KALS and KCOS. An isolated storm cant be ruled out of either of the
TAF sites this afternoon/early evening. For tomorrow afternoon it
should be dry at KALS through the day with an isolated storm
possible during the mid afternoon at KPUB and KCOS.


* * * * * Northwest Colorado * * * * *

METAR KCAG 222153Z AUTO 25011G15KT 10SM CLR 29/00 A2997 RMK AO2 LTG DSNT
       E SLP075 T02940000 $
METAR KCAG 222053Z AUTO 10SM FEW100 SCT120 28/M02 A2999 RMK AO2 PK WND
       21039/2039 SLP081 6//// T02831022 56015
METAR KCAG 221953Z AUTO 24009KT 10SM CLR 31/02 A2999 RMK AO2 SLP077
       T03110022

METAR KHDN 222156Z AUTO 35005KT 10SM CLR 27/M02 A3003 RMK AO2 PK WND
       22039/2107 WSHFT 2117 LTG DSNT NE AND E
       TSB04E20B22E33RAB07E24 SLP083 P0000 T02671017
SPECI KHDN 222133Z AUTO 34012G17KT 10SM FEW095 SCT110 27/M01 A3003 RMK
       AO2 PK WND 22039/2107 WSHFT 2117 LTG DSNT NE
       TSB04E20B22E33RAB07E24 P0000
SPECI KHDN 222128Z AUTO 34012G28KT 10SM VCTS SCT100 BKN120 27/M01 A3003
       RMK AO2 PK WND 22039/2107 WSHFT 2107 LTG DSNT NE AND SE
       TSB04E20B22RAB07E24 P0000

METAR KSBS 222215Z AUTO 06009KT 10SM SCT070 SCT095 BKN120 22/03 A3007
       RMK AO1 T02210034
METAR KSBS 222155Z AUTO 13017G22KT 10SM SCT070 BKN095 OVC110 23/04 A3009
       RMK AO1 T02270036
METAR KSBS 222135Z AUTO 21006KT 10SM SCT095 BKN120 24/04 A3007 RMK AO1
       T02390044

METAR KC07 222212Z AUTO 10SM BKN085 13/05 A3037 RMK AO2 LTG DSNT N AND
       E
METAR KC07 222154Z AUTO 10SM VCTS BKN085 13/06 A3037 RMK AO2 LTG DSNT
       N
METAR KC07 222130Z AUTO 10SM CLR 14/05 A3037 RMK AO2 LTG DSNT NE AND
       W

METAR K33V 222155Z AUTO 19013G18KT 10SM SCT075 SCT095 BKN120 21/M03
       A3017 RMK AO1
METAR K33V 222135Z AUTO 18015G23KT 10SM SCT075 OVC110 21/M00 A3018 RMK
       AO1
METAR K33V 222115Z AUTO 17021G30KT 10SM SCT075 SCT095 OVC110 21/M02
       A3018 RMK AO1

METAR KEEO 222153Z AUTO 23019G34KT 10SM CLR 30/M07 A2999 RMK AO2 PK WND
       25034/2146 SLP067 T03001067 $
METAR KEEO 222053Z AUTO 21014G24KT 10SM CLR 31/M03 A3000 RMK AO2 PK WND
       23026/2025 SLP065 T03061033 58012 $
METAR KEEO 221953Z AUTO 24012G27KT 10SM FEW120 31/M01 A3002 RMK AO2 PK
       WND 22028/1930 SLP067 T03061006 $

METAR K20V 222206Z AUTO 03006KT 10SM CLR 24/01 A3013 RMK AO2
METAR K20V 222148Z AUTO 05012G18KT 344V084 10SM CLR 23/01 A3012 RMK
        AO2
METAR K20V 222130Z AUTO 02008G19KT 10SM CLR 23/01 A3013 RMK AO2

METAR KGNB 222211Z AUTO 35005G12KT 10SM SCT120 22/02 A3019 RMK AO2
       T02230021
METAR KGNB 222153Z AUTO 32009G15KT 290V360 10SM CLR 25/00 A3018 RMK AO2
       T02450001
METAR KGNB 222129Z AUTO 23008G15KT 10SM SCT090 BKN110 24/00 A3020 RMK
       AO2 T02410001

METAR K0CO 222236Z AUTO 27012G21KT 10SM SCT070 BKN085 11/03 A3053 RMK
       AO2 LTG DSNT NE
METAR K0CO 222212Z AUTO 10SM SCT070 11/03 A3053 RMK AO2 LTG DSNT N AND
       NE
METAR K0CO 222154Z AUTO 24009KT 151V261 10SM SCT100 11/02 A3054 RMK
        AO2 LTG DSNT N AND NE

KGJT 222216Z 2222/2318 27010KT P6SM SCT120
     FM230200 12007KT P6SM SCT180 SCT200
     FM231200 12010KT P6SM FEW200
METAR KGJT 222153Z 27010KT 10SM CLR 34/01 A2989 RMK AO2 SLP039
       T03390011
METAR KGJT 222053Z 30013KT 10SM CLR 33/04 A2992 RMK AO2 SLP048 T03330044
       58009
METAR KGJT 221953Z 30010G18KT 10SM CLR 33/04 A2993 RMK AO2 SLP047
       T03330039

KRIL 221738Z 2218/2318 VRB05KT P6SM FEW120 SCT250
     FM221900 25013G25KT P6SM SCT120 BKN200
     FM230300 15005KT P6SM FEW120 SCT200
     FM231200 VRB03KT P6SM FEW200
METAR KRIL 222153Z AUTO 24019G28KT 10SM CLR 32/M04 A2994 RMK AO2 PK WND
       25029/2126 SLP057 T03221039
METAR KRIL 222053Z AUTO 24011G28KT 10SM CLR 33/M02 A2995 RMK AO2 PK WND
       28030/2007 SLP057 T03331017 56016
METAR KRIL 221953Z AUTO 28020G30KT 10SM CLR 34/02 A2995 RMK AO2 PK WND
       29030/1949 LTG DSNT E SLP054 T03390017

METAR K5SM 222207Z AUTO 00000KT 10SM SCT050 SCT065 BKN090 15/M03 A3043
       RMK AO2
METAR K5SM 222149Z AUTO 00000KT 10SM -RA SCT050 BKN090 OVC120 14/M02
        A3044 RMK AO2 LTG DSNT S
METAR K5SM 222125Z AUTO 00000KT 10SM OVC100 15/M02 A3044 RMK AO2

KEGE 222218Z 2222/2318 25015G30KT P6SM VCSH FEW090 SCT120
     FM230000 23013G22KT P6SM VCSH FEW090 SCT120
     FM230300 22008KT P6SM SCT100 BKN180
     FM230500 09003KT P6SM FEW120 SCT200
METAR KEGE 222156Z 25017G33KT 10SM FEW120 27/02 A3007 RMK AO2 PK WND
       24033/2149 SLP114 T02670017
SPECI KEGE 222109Z 20008KT 170V240 10SM SCT004 26/M01 A3006 RMK AO2 PK
       WND 16031/2059
METAR KEGE 222056Z 18030G36KT 10SM CLR 27/M02 A3005 RMK AO2 PK WND
       18040/2038 SLP105 T02671017 55015

KASE 222219Z 2222/2318 36012G25KT P6SM FEW120
     FM230100 18008KT P6SM SCT090 BKN180
     FM231500 VRB04KT P6SM FEW200
METAR KASE 222153Z 36014G26KT 10SM FEW120 26/M02 A3014 RMK AO2 PK WND
       35027/2108 SLP071 T02611017
METAR KASE 222053Z 33016G26KT 10SM FEW120 25/M03 A3015 RMK AO2 PK WND
       34031/2022 SLP075 T02501028 56008
METAR KASE 221953Z 31008G14KT 10SM FEW120 26/M07 A3015 RMK AO2 LTG DSNT
       NW SLP061 T02611067

METAR KCCU 222212Z AUTO 10SM SCT075 OVC085 15/M02 A3050 RMK AO2 LTG DSNT
       E
METAR KCCU 222153Z AUTO 27011G18KT 10SM SCT075 SCT085 16/M02 A3050 RMK
       AO2 LTG DSNT W
METAR KCCU 222130Z AUTO 28011G19KT 260V320 10SM SCT070 SCT085 16/M04
       A3051 RMK AO2

METAR KLXV 222153Z AUTO 18007KT 10SM BKN110 20/M02 A3032 RMK AO2 SLP101
       T02001017
METAR KLXV 222053Z AUTO VRB04KT 10SM OVC110 17/M01 A3035 RMK AO2 SLP119
       60000 T01721011 58001
METAR KLXV 221953Z AUTO 05006G16KT 10SM FEW065 SCT080 BKN100 15/02 A3038
       RMK AO2 PK WND 05031/1928 WSHFT 1921 RAE37 SLP135 P0000
       T01500022

Sunrise/Sunset for 08/22/2019
Rangely           - 06:33:22 MDT / 20:02:41 MDT
Grand Junction    - 06:33:57 MDT / 20:00:18 MDT
Steamboat Springs - 06:24:56 MDT / 19:55:27 MDT

Grand Junction (KGJX) 08/22/19 22:18 UTC
Radar VAD winds      Height      Dir/Spd(kt)
                  30000 FT MSL...233/024
                  28000 FT MSL...229/021
                  26000 FT MSL...215/023
                  25000 FT MSL...226/022
                  24000 FT MSL...225/022
                  22000 FT MSL...210/020
                  21300 FT MSL...205/018
                  20000 FT MSL...222/018
                  19000 FT MSL...227/017
                  18000 FT MSL...231/015
                  17000 FT MSL...234/015
                  16000 FT MSL...245/019
                  15000 FT MSL...244/018
                  14000 FT MSL...245/018
                  13000 FT MSL...243/015
                  12600 FT MSL...256/014
                  12000 FT MSL...247/018
                  11800 FT MSL...257/017
                  11000 FT MSL...263/016
                  10700 FT MSL...269/013
                  10400 FT MSL...272/014

Grand Junction Aviation Discussion
Issued at 2148 UTC Thursday, August 22, 2019

.AVIATION...(For the 18Z TAFS through 18Z Friday afternoon)
Issued at 1139 AM MDT Thu Aug 22 2019
VFR conditions will prevail across most of western Colorado and
eastern Utah for the next 24 hours. High and mid-level clouds are
streaming in from the west today with isolated showers and storms
firing along the Continental Divide and western San Juans. Expect
these storms to continue through sunset.


* * * * * Southwest Colorado * * * * *

METAR KAJZ 222215Z AUTO 23011G23KT 5SM HZ CLR 34/M03 A2993 RMK AO2
       T03391027
METAR KAJZ 222155Z AUTO 24013G21KT 5SM HZ CLR 35/M03 A2993 RMK AO2 LTG
       DSNT E T03491032
METAR KAJZ 222135Z AUTO 26015G19KT 7SM CLR 35/M03 A2993 RMK AO2 LTG DSNT
       SE T03491026

KMTJ 222134Z 2222/2318 27012G25KT P6SM VCTS SCT080CB BKN200
     FM222300 23010G20KT P6SM SCT120 OVC200
     FM230100 17006KT P6SM SCT150
     FM231600 32005KT P6SM FEW200
METAR KMTJ 222153Z AUTO 28013KT 3SM HZ CLR 32/M01 A3001 RMK AO2 LTG DSNT
       E AND S SLP059 T03171006
SPECI KMTJ 222143Z AUTO 26012G22KT 8SM CLR 32/M01 A3001 RMK AO2 LTG DSNT
       E AND S T03171011
SPECI KMTJ 222128Z AUTO 24011G21KT 10SM VCTS CLR 32/01 A3000 RMK AO2 LTG
       DSNT E AND S T03170006

METAR KGUC 222156Z AUTO 28016G21KT 10SM BKN110 23/02 A3019 RMK AO2 PK
       WND 25028/2059 LTG DSNT W RAE15 SLP143 P0000 T02280022
METAR KGUC 222056Z AUTO 23018G26KT 10SM -RA BKN110 24/02 A3017 RMK AO2
       PK WND 22026/2056 RAB56 SLP130 P0000 60000 T02390017
       55015
METAR KGUC 221956Z AUTO 25014G20KT 10SM SCT100 26/02 A3016 RMK AO2 LTG
       DSNT SE SLP119 T02610022

METAR K7BM 222212Z AUTO 15013G19KT 10SM SCT055 SCT070 OVC080 17/00 A3036
       RMK AO2 LTG DSNT NE AND E
METAR K7BM 222148Z AUTO 18011KT 150V210 10SM -RA SCT060 BKN080 OVC095
        17/00 A3035 RMK AO2 LTG DSNT S AND SW
METAR K7BM 222130Z AUTO 00000KT 10SM SCT070 SCT075 OVC095 18/00 A3035
       RMK AO2 LTG DSNT SW

METAR KAEJ 222215Z AUTO 20015G23KT 10SM BKN085 OVC110 22/00 A3021 RMK
       AO2 T02190003
METAR KAEJ 222155Z AUTO 16003KT 10SM SCT080 OVC110 23/M02 A3019 RMK AO2
       LTG DSNT S T02301019
METAR KAEJ 222135Z AUTO 07005KT 10SM SCT075 BKN090 OVC110 23/M02 A3019
       RMK AO2 T02331021

METAR KANK 222215Z AUTO 21009KT 10SM CLR 26/M02 A3022 RMK AO1
       T02611017
METAR KANK 222155Z AUTO 21010G21KT 10SM CLR 27/00 A3022 RMK AO1
       T02691005
METAR KANK 222135Z AUTO 16008G15KT 10SM SCT070 SCT085 SCT120 26/02 A3023
       RMK AO1 T02640018

METAR KMYP 222212Z AUTO 10SM SCT090 12/00 A3062 RMK AO2
METAR KMYP 222154Z AUTO 10SM CLR 13/M01 A3062 RMK AO2 LTG DSNT N AND
       W
METAR KMYP 222130Z AUTO 10SM CLR 12/00 A3062 RMK AO2 LTG DSNT NW

METAR KAIB 222215Z AUTO 24010KT 10SM CLR 30/M03 A3004 RMK AO2
METAR KAIB 222155Z AUTO 22013G17KT 10SM CLR 30/M03 A3004 RMK AO2 LTG
       DSNT NE
METAR KAIB 222135Z AUTO 24010G21KT 10SM CLR 31/M03 A3005 RMK AO2

KTEX 221848Z 2219/2318 28005KT P6SM VCTS SCT080CB SCT200
      TEMPO 2219/2223 VRB06KT 6SM TS SCT060CB
     FM230300 14005KT P6SM FEW120 SCT200
     FM231600 23006KT P6SM SCT200
METAR KTEX 222215Z AUTO 11007KT 080V140 10SM SCT090 18/01 A3033 RMK
       AO2
METAR KTEX 222155Z AUTO 09008G14KT 050V110 10SM SCT090 SCT120 18/01
       A3034 RMK AO2 LTG DSNT N
METAR KTEX 222135Z AUTO 24003KT 10SM SCT090 BKN120 18/00 A3034 RMK AO2
       LTG DSNT N

METAR K04V 222218Z AUTO 00000KT 10SM SCT120 22/04 A3022 RMK AO2
       PWINO
METAR K04V 222154Z AUTO 00000KT 10SM BKN110 20/03 A3021 RMK AO2 PWINO
METAR K04V 222136Z AUTO 00000KT 10SM SCT034 SCT055 OVC110 18/06 A3022
       RMK AO2 PWINO

METAR KCEZ 222153Z AUTO 29010G20KT 10SM CLR 31/M02 A3004 RMK AO2 SLP072
       T03061022
METAR KCEZ 222053Z AUTO 30013G23KT 10SM CLR 32/M02 A3006 RMK AO2 SLP077
       T03171017 58013
METAR KCEZ 221953Z AUTO 17007KT 10SM CLR 31/04 A3008 RMK AO2 SLP084
       T03110044

KDRO 221738Z 2218/2318 VRB05KT P6SM FEW100
     FM222000 26012G25KT P6SM SCT120 BKN200
     FM230200 31007KT P6SM FEW150 SCT200
     FM230900 04004KT P6SM FEW200
METAR KDRO 222153Z AUTO 25017G23KT 10SM CLR 31/M01 A3008 RMK AO2 LTG
       DSNT N AND NE SLP088 T03061011
METAR KDRO 222053Z AUTO 25016G22KT 10SM CLR 30/03 A3011 RMK AO2 LTG DSNT
       N SLP096 T03000033 58019 $
METAR KDRO 221953Z AUTO 29007KT 10SM CLR 29/05 A3013 RMK AO2 LTG DSNT N
       SLP103 T02890050 $

METAR KPSO 222215Z AUTO 32011G24KT 10SM SCT120 23/02 A3017 RMK AO2 LTG
       DSNT N T02290023
METAR KPSO 222155Z AUTO 30013G23KT 10SM TS SCT120 23/03 A3019 RMK AO2
       LTG DSNT N T02320034
METAR KPSO 222135Z AUTO 32015G26KT 7SM SCT100 25/03 A3019 RMK AO2 LTG
       DSNT N T02480029

METAR KCPW 222212Z AUTO 31010G19KT 10SM TS BKN050 BKN065 OVC100 08/01
       A3057 RMK AO2 LTG DSNT W
METAR KCPW 222153Z AUTO 31009G14KT 10SM TS SCT055 BKN070 OVC110 10/00
       A3057 RMK AO2 LTG DSNT SW THRU NE
METAR KCPW 222130Z AUTO 22003KT 10SM TS SCT055 OVC110 12/01 A3058 RMK
       AO2 LTG DSNT SW THRU NW

KALS 221721Z 2218/2318 VRB03KT P6SM FEW200
     FM222000 26011KT P6SM SCT100 SCT200
     FM222200 27012KT P6SM VCTS SCT090CB BKN150
     FM230200 VRB05KT P6SM SCT090 BKN200
     FM230600 VRB03KT P6SM SCT200
METAR KALS 222152Z AUTO 36012G19KT 10SM BKN120 24/03 A3017 RMK AO2
       SLP138 T02390028
METAR KALS 222052Z AUTO 21015G18KT 10SM CLR 27/00 A3017 RMK AO2 LTG DSNT
       SE AND S SLP124 T02670000 56021
METAR KALS 221952Z AUTO 21011G16KT 10SM CLR 26/05 A3020 RMK AO2 SLP137
       T02560050

Sunrise/Sunset for 08/22/2019
Vail    - 06:24:21 MDT / 19:52:20 MDT
Durango - 06:33:46 MDT / 19:55:00 MDT
Alamosa - 06:25:32 MDT / 19:47:16 MDT

Grand Junction (KGJX) 08/22/19 22:18 UTC
Radar VAD winds      Height      Dir/Spd(kt)
                  30000 FT MSL...233/024
                  28000 FT MSL...229/021
                  26000 FT MSL...215/023
                  25000 FT MSL...226/022
                  24000 FT MSL...225/022
                  22000 FT MSL...210/020
                  21300 FT MSL...205/018
                  20000 FT MSL...222/018
                  19000 FT MSL...227/017
                  18000 FT MSL...231/015
                  17000 FT MSL...234/015
                  16000 FT MSL...245/019
                  15000 FT MSL...244/018
                  14000 FT MSL...245/018
                  13000 FT MSL...243/015
                  12600 FT MSL...256/014
                  12000 FT MSL...247/018
                  11800 FT MSL...257/017
                  11000 FT MSL...263/016
                  10700 FT MSL...269/013
                  10400 FT MSL...272/014

Grand Junction Aviation Discussion
Issued at 2148 UTC Thursday, August 22, 2019

.AVIATION...(For the 18Z TAFS through 18Z Friday afternoon)
Issued at 1139 AM MDT Thu Aug 22 2019
VFR conditions will prevail across most of western Colorado and
eastern Utah for the next 24 hours. High and mid-level clouds are
streaming in from the west today with isolated showers and storms
firing along the Continental Divide and western San Juans. Expect
these storms to continue through sunset.


* * * * * Arizona * * * * *

KPGA 222215Z 2222/2318 22008G16KT P6SM SCT250
     FM230300 VRB05KT P6SM FEW250
METAR KPGA 222153Z AUTO 20007KT 160V240 10SM CLR 36/M07 A2986 RMK AO2
       SLP035 T03561067 TSNO
METAR KPGA 222053Z AUTO 21009G16KT 170V250 10SM CLR 37/M07 A2989 RMK AO2
       SLP041 T03671067 58021 TSNO

METAR KRQE 222153Z AUTO 24014G20KT 10SM CLR 31/M03 A3012 RMK AO2 SLP061
       T03111028
METAR KRQE 222053Z AUTO 23009G18KT 10SM CLR 31/M03 A3014 RMK AO2 SLP070
       T03111028 58013

Flagstaff (KFSX) 08/22/19 22:19 UTC
Radar VAD winds      Height      Dir/Spd(kt)
                  18000 FT MSL...243/016
                  17000 FT MSL...231/017
                  16400 FT MSL...241/017
                  16000 FT MSL...242/016
                  15000 FT MSL...235/016
                  14500 FT MSL...253/016
                  14000 FT MSL...233/015
                  13000 FT MSL...233/016
                  12000 FT MSL...237/014
                  11000 FT MSL...236/016
                  10000 FT MSL...239/017
                  10000 FT MSL...221/009
                   9200 FT MSL...249/009
                   9000 FT MSL...230/018
                   8500 FT MSL...240/012
                   8100 FT MSL...232/018
                   7800 FT MSL...233/015

Flagstaff Aviation Discussion
Issued at 2138 UTC Thursday, August 22, 2019

.AVIATION...For the 00Z package...VFR conditions will prevail for
the next 24 hours. Smoke from area wildfires will be present in
spots, but impacts will be minimal. Southwest winds 10-20 kts with
gusts 25 kts through sunset then becoming less than 10 kts
overnight. Another round of gusty afternoon southwest winds on
Friday with a good chance of showers and thunderstorms along and
south of a KSOW-KSJN line. Aviation discussion not updated for TAF
amendments.


* * * * * Utah * * * * *

KSLC 222104Z 2221/2324 32010KT P6SM BKN250
     FM230900 17004KT P6SM FEW250
METAR KSLC 222154Z 30015KT 10SM FEW120 BKN180 BKN230 32/02 A2982 RMK AO2
       SLP034 VIRGA T03220022
METAR KSLC 222054Z 31014KT 10SM FEW110 FEW140 SCT170 BKN230 33/01 A2983
       RMK AO2 SLP035 VIRGA ACSL DSNT E AND SE T03280006 58006
METAR KSLC 221954Z 32010KT 10SM FEW120 BKN170 BKN230 33/01 A2984 RMK AO2
       SLP036 VIRGA ACSL E T03280011

KVEL 222220Z 2222/2318 20010KT P6SM FEW120 BKN200
     FM230200 26005KT P6SM FEW150 SCT200
     FM231500 17005KT P6SM FEW200
METAR KVEL 222153Z AUTO 20010KT 10SM CLR 33/M03 A2990 RMK AO2 SLP044
       T03281033
METAR KVEL 222053Z AUTO 22004KT 10SM CLR 31/M03 A2993 RMK AO2 SLP052
       T03111033 56013
METAR KVEL 221953Z AUTO 35006KT 10SM CLR 32/M01 A2994 RMK AO2 SLP064
       T03221011

METAR KPUC 222153Z AUTO 20006KT 10SM CLR 31/M08 A2996 RMK AO2 SLP044
       T03111078
METAR KPUC 222053Z AUTO 00000KT 10SM CLR 30/M01 A2999 RMK AO2 SLP058
       T03001011 58015

KCNY 222220Z 2222/2318 20011KT P6SM FEW130 BKN200
     FM230300 20008KT P6SM FEW200
     FM231000 20004KT P6SM SKC
METAR KCNY 222153Z AUTO 20011KT 10SM CLR 35/M09 A2985 RMK AO2 PK WND
        21027/2142 SLP031 T03501089
METAR KCNY 222053Z AUTO 23015G22KT 10SM CLR 34/M06 A2987 RMK AO2 SLP041
       T03441061 58013
METAR KCNY 221953Z AUTO 26009KT 10SM CLR 33/M02 A2989 RMK AO2 SLP047
       T03331022


Salt Lake City (KMTX) 08/22/19 22:11 UTC
Radar VAD winds      Height      Dir/Spd(kt)
                  26000 FT MSL...247/036
                  25000 FT MSL...247/036
                  24000 FT MSL...237/030
                  22000 FT MSL...244/033
                  20000 FT MSL...247/029
                  19000 FT MSL...246/028
                  18000 FT MSL...244/028
                  17800 FT MSL...244/026
                  17000 FT MSL...232/024
                  16000 FT MSL...238/021
                  15500 FT MSL...247/023
                  15000 FT MSL...237/027
                  14000 FT MSL...244/026
                  13700 FT MSL...239/027
                  13000 FT MSL...238/028
                  12200 FT MSL...233/025
                  12000 FT MSL...238/026
                  11000 FT MSL...243/024
                  10900 FT MSL...237/025
                  10000 FT MSL...251/021
                   9900 FT MSL...252/021
                   9100 FT MSL...266/018
                   9000 FT MSL...266/018
                   8300 FT MSL...274/015
                   8000 FT MSL...292/015
                   7600 FT MSL...293/012
                   7100 FT MSL...313/013
                   7000 FT MSL...308/013
                   6900 FT MSL...318/013

Salt Lake City Aviation Discussion
Issued at 2206 UTC Thursday, August 22, 2019

.AVIATION...Northwest winds will continue at the SLC terminal
through the afternoon and evening. Winds will gradually decrease and
likely become variable or even light southerly after 08-10Z.
Once winds become southerly once again, smoke may move back into the
area for a time Friday morning.


* * * * * Wyoming * * * * *

KEVW 221737Z 2218/2318 22011G18KT P6SM BKN200
     FM222000 26018G28KT P6SM BKN200
     FM230300 32009KT P6SM FEW250=
METAR KEVW 222153Z AUTO 26014G23KT 10SM CLR 27/M06 A3003 RMK AO2 SLP065
       T02721061
METAR KEVW 222053Z AUTO 25013G20KT 10SM CLR 27/M07 A3005 RMK AO2 PK WND
       28027/2037 SLP069 T02671067 50001
METAR KEVW 221953Z AUTO 27019G27KT 10SM CLR 26/M06 A3005 RMK AO2 PK WND
       23027/1904 SLP070 T02611061

KRKS 221731Z 2218/2318 29008G15KT P6SM BKN200
     FM222000 25017G30KT P6SM BKN200
     FM230200 26010KT P6SM SCT120 BKN200
     FM230600 23006KT P6SM SCT150
     FM231600 28007KT P6SM FEW070
METAR KRKS 222154Z AUTO 24007KT 210V270 10SM CLR 28/M07 A2998 RMK AO2
       SLP058 T02831067
METAR KRKS 222054Z AUTO 27004G14KT 10SM CLR 28/M07 A3000 RMK AO2 SLP067
        T02781067 58010
METAR KRKS 221954Z AUTO 22008KT 10SM CLR 28/M06 A3002 RMK AO2 SLP069
       T02781056

KRWL 221756Z 2218/2318 24016G28KT P6SM FEW120
     FM230200 26013KT P6SM SCT120
     FM231000 32007KT P6SM SCT250
METAR KRWL 222153Z AUTO 26022G35KT 10SM CLR 28/M02 A3001 RMK AO2 PK WND
       29041/2116 WSHFT 2051 RAB14E30 SLP052 P0000 T02781022
SPECI KRWL 222111Z AUTO 28025G30KT 10SM CLR 28/M03 A2999 RMK AO2 PK WND
       28030/2111 WSHFT 2051 T02831033
METAR KRWL 222053Z AUTO 25012G26KT 10SM CLR 30/M04 A3000 RMK AO2 PK WND
       23026/2044 LTG DSNT S SLP043 T03001044 56012

KLAR 221950Z 2220/2318 20014KT P6SM VCTS SCT080CB SCT120
      TEMPO 2220/2222 P6SM -TSRA BKN080CB
     FM230100 17012KT P6SM SCT100 BKN250
     FM231300 22005KT P6SM SCT180=
SPECI KLAR 222221Z AUTO 15016G29KT 10SM FEW110 24/02 A3004 RMK AO2 PK
       WND 14029/2217 WSHFT 2201 T02440017
METAR KLAR 222153Z AUTO 20008G31KT 10SM BKN100 25/M03 A3006 RMK AO2 PK
       WND 29031/2146 WSHFT 2045 LTG DSNT E AND SE SLP061
       T02501033
SPECI KLAR 222105Z AUTO 03013KT 10SM SCT120 25/M01 A3006 RMK AO2 WSHFT
       2045 LTG DSNT NE AND SE T02501011

KCYS 222209Z 2222/2318 18014KT P6SM VCTS SCT060CB BKN250
      TEMPO 2222/2223 18015G35KT -TSRA BKN060CB OVC100
     FM230100 19012KT P6SM VCSH SCT050 BKN100
     FM230500 20008KT P6SM SCT250
     FM231400 32006KT P6SM SCT250
SPECI KCYS 222214Z 27011KT 10SM VCTS -RA SCT090 OVC110 24/11 A3005 RMK
       AO2 LTG DSNT ALQDS RAB01 TSE08 P0000 T02390111
METAR KCYS 222153Z 23008KT 10SM TS SCT090 BKN110 24/11 A3003 RMK AO2
        LTG DSNT ALQDS TSB46 SLP080 T02440111
SPECI KCYS 222137Z 19005KT 10SM VCTS FEW085 SCT120 24/11 A3004 RMK AO2
       LTG DSNT W AND NW T02440111

Riverton (KRIW) 08/22/19 22:20 UTC
Radar VAD winds      Height      Dir/Spd(kt)
                  30000 FT MSL...228/026
                  28000 FT MSL...232/029
                  26000 FT MSL...230/035
                  25000 FT MSL...225/036
                  24000 FT MSL...213/035
                  22000 FT MSL...217/031
                  20000 FT MSL...236/020
                  19000 FT MSL...221/027
                  18000 FT MSL...227/027
                  17000 FT MSL...228/020
                  16000 FT MSL...217/032
                  15000 FT MSL...221/027
                  14000 FT MSL...198/025
                  13000 FT MSL...246/022
                  12000 FT MSL...248/019
                  11200 FT MSL...244/018
                  11000 FT MSL...247/017
                  10000 FT MSL...247/018
                  10000 FT MSL...238/018
                   9000 FT MSL...248/017
                   8900 FT MSL...238/018
                   8100 FT MSL...234/016
                   8000 FT MSL...243/017
                   7300 FT MSL...233/015
                   7000 FT MSL...243/016
                   6700 FT MSL...243/014
                   6200 FT MSL...266/008
                   6000 FT MSL...249/009
                   6000 FT MSL...268/007

Cheyenne (KCYS) 08/22/19 22:20 UTC
Radar VAD winds      Height      Dir/Spd(kt)
                  34000 FT MSL...263/020
                  33000 FT MSL...263/018
                  32700 FT MSL...263/018
                  32000 FT MSL...259/029
                  31000 FT MSL...263/021
                  30000 FT MSL...254/019
                  29000 FT MSL...251/019
                  28000 FT MSL...250/020
                  27600 FT MSL...251/020
                  27000 FT MSL...254/020
                  26000 FT MSL...262/020
                  25000 FT MSL...265/021
                  24000 FT MSL...271/019
                  23400 FT MSL...273/021
                  23000 FT MSL...274/021
                  22000 FT MSL...275/021
                  21000 FT MSL...278/021
                  20000 FT MSL...278/021
                  20000 FT MSL...276/021
                  19000 FT MSL...273/021
                  18000 FT MSL...282/023
                  17300 FT MSL...280/022
                  17000 FT MSL...277/021
                  16000 FT MSL...272/020
                  15100 FT MSL...277/020
                  15000 FT MSL...248/018
                  14000 FT MSL...249/017
                  13200 FT MSL...238/015
                  13000 FT MSL...251/016
                  12000 FT MSL...244/015
                  11700 FT MSL...224/014
                  11000 FT MSL...244/016
                  10500 FT MSL...214/014
                  10000 FT MSL...228/011
                   9500 FT MSL...221/012
                   6700 FT MSL...292/016

Riverton Aviation Discussion
Issued at 2133 UTC Thursday, August 22, 2019

.AVIATION...(For the 18Z TAFS through 18Z Friday afternoon)
Issued at 1202 PM MDT Thu Aug 22 2019
Another round of showers and thunderstorms will develop across the
state today as a cold front approaches from the west. Convection
will be most likely across the north and may be strong, but is
less likely to be severe today. KWRL, KJAC, and KJAC have the
greatest chance of being impacted. Brief MVFR conditions could
occur with convection. Winds will increase across the region
through the afternoon with gusts of 30 to 35 mph expected across
southern WY. Then, late tonight and Friday morning ceilings will
drop and MVFR conditions could be widespread. These conditions
should improve by noon.

Cheyenne Aviation Discussion
Issued at 2115 UTC Thursday, August 22, 2019

.AVIATION...(For the 18Z TAFS through 18Z Friday afternoon)
Issued at 1157 AM MDT Thu Aug 22 2019
Two aviation concerns with 1) TSRA developing near KCYS and KSNY
from 20Z-03Z this afternoon and evening and 2) MVFR to IFR
ceilings developing for the Nebraska Panhandle sites 11Z-15Z
Friday morning with WY TAf sites likely remaining VFR. Only caveat
would be KCYS for patchy ground fog depending on how much rain
falls this afternoon from the TSRA. Some TSRA could be strong to
severe and produce local turbulence and wind gusts upwards of
40-50 knots near their cores. Storm tops to FL040 likely this
afternoon and early evening with TSRA shifting away from all
airports 03Z to the east. Winds will primarily be southeast to
south for Panhandle and KCYS at 15-20 with gusts to 25-30 knots
at times this afternoon. KLAR/KRWL will be similar in speed but
more southwest to west in direction.


* * * * * Nebraska * * * * *

METAR KIBM 222215Z AUTO 12013G18KT 10SM VCTS CLR 25/16 A2994 RMK AO2 LTG
       DSNT SW AND W T02500161
METAR KIBM 222150Z AUTO 13015G20KT 10SM CLR 26/16 A2996 RMK AO2 LTG DSNT
       W T02570160
METAR KIBM 222135Z AUTO 14014KT 10SM CLR 26/16 A2997 RMK AO2
       T02600161

KSNY 221756Z 2218/2318 17015G25KT P6SM SCT040
     FM230000 16017G27KT P6SM VCTS SCT070CB BKN250
      TEMPO 2300/2303 16015G30KT 6SM TSRA BKN060CB OVC100
     FM230800 16013KT P6SM OVC250
     FM231300 16008KT P6SM OVC025
     FM231600 16011KT P6SM SCT050
METAR KSNY 222153Z AUTO 15020G25KT 10SM FEW049 29/15 A2995 RMK AO2 PK
       WND 15028/2110 SLP087 T02890150
METAR KSNY 222053Z AUTO 15019G26KT 10SM FEW043 28/16 A2996 RMK AO2 PK
       WND 15029/2036 SLP091 T02830156 58016
METAR KSNY 221953Z AUTO 15019G26KT 10SM FEW036 28/16 A2998 RMK AO2 PK
       WND 16026/1948 SLP101 T02780156

METAR KOGA 222215Z AUTO 14013G18KT 10SM SCT030 28/19 A2993 RMK AO2
       T02750191
METAR KOGA 222155Z AUTO 14014G18KT 10SM SCT030 27/19 A2993 RMK AO2
       T02740190
METAR KOGA 222135Z AUTO 13015G20KT 10SM SCT030 27/19 A2993 RMK AO2
       T02740187

METAR KIML 222153Z AUTO 14014G23KT 10SM CLR 28/18 A2992 RMK AO2 PK WND
       13026/2118 SLP097 T02830183
METAR KIML 222053Z AUTO 11014G25KT 10SM FEW027 27/19 A2994 RMK AO2
       SLP106 T02670189 58015
METAR KIML 221953Z AUTO 12017G23KT 10SM FEW026 SCT033 27/18 A2997 RMK
       AO2 SLP118 T02670183

KMCK 221720Z 2218/2318 15010KT P6SM BKN015
     FM222000 13011KT P6SM BKN030
     FM222300 12013KT P6SM BKN045
     FM230300 11009KT P6SM SCT005 BKN020
     FM230500 13009KT P6SM OVC005
      TEMPO 2309/2313 1SM BR
     FM231600 14011KT P6SM BKN020
METAR KMCK 222153Z AUTO 12014KT 10SM FEW035 BKN046 27/19 A2993 RMK AO2
       SLP111 T02670189
METAR KMCK 222053Z AUTO 12014KT 10SM SCT025 BKN034 26/20 A2996 RMK AO2
       SLP122 T02610200 58014
SPECI KMCK 222039Z AUTO 12011KT 10SM FEW023 BKN030 BKN037 26/20 A2997
       RMK AO2 T02610200

North Platte (KLNX) 08/22/19 22:23 UTC
Radar VAD winds      Height      Dir/Spd(kt)
                  15000 FT MSL...315/022
                  13000 FT MSL...316/022
                  12000 FT MSL...276/021
                   8000 FT MSL...132/015
                   7500 FT MSL...161/018
                   7000 FT MSL...165/018
                   6400 FT MSL...162/019
                   6000 FT MSL...164/019
                   5000 FT MSL...157/018
                   4100 FT MSL...149/019
                   4000 FT MSL...150/016
                   3700 FT MSL...136/018
                   3400 FT MSL...137/018

North Platte Aviation Discussion
Issued at 1956 UTC Thursday, August 22, 2019

.AVIATION...(For the 18Z TAFS through 18Z Friday afternoon)
Issued at 1234 PM CDT Thu Aug 22 2019
A stagnant pattern and frontal boundry to the west will bring
little change in the next 24 hours. Ceiling will vary east of the
Panhandle with LIFR to IFR conditions to lift to MVFR conditions
into areas north of Highway 2. To the south IFR to LIFR conditions
will remain with ceilings expected to drop below 1000 feet beyond
06Z as fog redevelops some dense outside of the North Platte
River Valley initially then more widespread through 15Z over the
southwest. Another round of showers and thunderstorms overnight
however more isolated with areal coverage in questioned at this
time to limit inserting into the TAF at this time.


* * * * * Kansas * * * * *

KGLD 221720Z 2218/2318 16011KT P6SM SCT020
     FM222100 15015G24KT P6SM SCT030
     FM230100 15012KT P6SM FEW040 SCT250
     FM230900 15011KT P6SM SCT005 BKN015
     FM231500 16012KT P6SM SCT005 SCT015 BKN200
METAR KGLD 222153Z AUTO 16016KT 10SM CLR 28/18 A2994 RMK AO2 PK WND
       16027/2126 SLP095 T02780178
METAR KGLD 222053Z AUTO 17015G28KT 10SM CLR 27/18 A2996 RMK AO2 PK WND
       15028/2045 SLP101 T02720178 58014
METAR KGLD 221953Z AUTO 16019G25KT 10SM FEW039 27/18 A2999 RMK AO2 PK
       WND 15027/1925 SLP111 T02720183

KGCK 221901Z 2219/2318 15016G21KT P6SM FEW035 BKN045
     FM222100 14013G23KT P6SM SCT100 SCT200
     FM230100 13009KT P6SM SKC
     FM230600 15012KT P6SM OVC100
     FM231200 14010KT 4SM BR OVC030
     FM231500 15012G22KT P6SM BKN070
METAR KGCK 222154Z 17012G24KT 10SM CLR 27/17 A2993 RMK AO2 SLP101
       T02720172
METAR KGCK 222054Z 16010G24KT 10SM CLR 28/16 A2996 RMK AO2 SLP111
       T02830161 58021
METAR KGCK 221954Z 16011G23KT 10SM FEW044 28/17 A2999 RMK AO2 SLP122
       T02780167

METAR KLBL 222156Z AUTO 14008G17KT 10SM CLR 30/18 A2994 RMK AO2 SLP105
       T03000178
METAR KLBL 222056Z AUTO 13012G17KT 10SM FEW045 29/18 A2996 RMK AO2
       SLP114 T02890178 58021
METAR KLBL 221956Z AUTO 15013G18KT 10SM FEW041 28/17 A2999 RMK AO2
       SLP123 T02780172

METAR KEHA 222215Z AUTO 15009KT 10SM CLR 32/17 A2993 RMK AO2
       T03210167
METAR KEHA 222155Z AUTO 15010KT 10SM CLR 32/17 A2994 RMK AO2
       T03210170
METAR KEHA 222135Z AUTO 16012G16KT 10SM CLR 32/18 A2994 RMK AO2
       T03200175

Goodland (KGLD) 08/22/19 22:18 UTC
Radar VAD winds      Height      Dir/Spd(kt)
                  16000 FT MSL...321/020
                  15000 FT MSL...317/019
                  14900 FT MSL...317/019
                  14000 FT MSL...316/017
                  13000 FT MSL...308/016
                  12700 FT MSL...297/016
                  12000 FT MSL...286/015
                  11000 FT MSL...275/014
                  10800 FT MSL...273/012
                  10000 FT MSL...275/013
                   9300 FT MSL...192/009
                   9000 FT MSL...189/012
                   8100 FT MSL...169/017
                   8000 FT MSL...168/017
                   7000 FT MSL...161/021
                   7000 FT MSL...161/021
                   6200 FT MSL...158/022
                   6000 FT MSL...158/022
                   5400 FT MSL...157/022
                   5000 FT MSL...154/021
                   4700 FT MSL...156/021
                   4300 FT MSL...155/021
                   4000 FT MSL...157/019
                   4000 FT MSL...161/019

Dodge City (KDDC) 08/22/19 22:19 UTC
Radar VAD winds      Height      Dir/Spd(kt)
                  15000 FT MSL...346/023
                  14000 FT MSL...336/022
                  13900 FT MSL...339/018
                  13000 FT MSL...336/019
                  12000 FT MSL...337/017
                  11600 FT MSL...352/012
                  11000 FT MSL...293/021
                  10000 FT MSL...072/004
                   9700 FT MSL...066/006
                   8200 FT MSL...133/008
                   8000 FT MSL...008/006
                   7000 FT MSL...198/005
                   7000 FT MSL...198/005
                   6000 FT MSL...181/011
                   6000 FT MSL...175/012
                   5100 FT MSL...174/012
                   5000 FT MSL...167/014
                   4300 FT MSL...164/014
                   4000 FT MSL...164/015
                   3700 FT MSL...161/013
                   3200 FT MSL...161/017
                   3000 FT MSL...159/015
                   3000 FT MSL...159/015

Goodland Aviation Discussion
Issued at 2045 UTC Thursday, August 22, 2019

.AVIATION...(For the 18Z TAFS through 18Z Friday afternoon)
Issued at 1110 AM MDT Thu Aug 22 2019
KGLD, vfr conditions expected from taf issuance through about 08z.
Winds increase this afternoon gusting toward 25kts from the
southeast. For tonight winds remain from the southeast at speeds
near 12kts. From 09z-14z stratus and sub vfr conditions are
expected to return with some br/fg possible. After 15z vfr
conditions return with winds from the south-southeast near 12kts.
KMCK, sub vfr cigs expected from taf issuance through about 22z
with winds from the south-southeast near 10kts. From 23z-02z vfr
conditions are expected with winds remaining from the south-
southeast. Stratus and some fg/br returns for 03z-15z with
visibility restrictions diminishing after 16z but low cigs
continuing. Winds remain from the southeast near 11kts. Will have
to watch for showers/thunderstorms near the terminal in the 05z-
08z timeframe.

Dodge City Aviation Discussion
Issued at 1900 UTC Thursday, August 22, 2019

.AVIATION...(For the 18Z TAFS through 18Z Friday afternoon)
Issued at 1020 AM CDT Thu Aug 22 2019
Remaining stratus will erode through the midday hours, replaced by
scattered mid clouds and scattered afternoon cumulus. Overall
models appear convectively quiet this afternoon through tonight.
With a tropical moisture plume overhead, can`t rule out isolated
shower/thunderstorm development, but the odds of direct terminal
impacts are very low and kept the TAFs dry. SE winds will increase
modestly this afternoon, gusting 20-23 kts, with light SE winds
continuing overnight. With a moist boundary layer and SE upslope
flow, there is some signal for stratus redevelopment after 06z
Fri, but ceilings are expected to be higher, and not as
widespread, as observed Thursday morning. The highest probability
of reduced visibility in BR/FG and IFR stratus around 12z Fri is
at HYS.


* * * * * Texas/Oklahoma * * * * *

KGUY 221755Z 2218/2318 14007KT P6SM SCT250
     FM222000 17007KT P6SM SCT250
     FM231200 16007KT P6SM SCT050
     FM231300 16008KT P6SM SCT200=
METAR KGUY 222153Z AUTO 16007KT 10SM CLR 31/16 A2991 RMK AO2 SLP082
       T03060156
METAR KGUY 222053Z AUTO VRB06KT 10SM CLR 29/17 A2994 RMK AO2 SLP093
       T02940167 58021
METAR KGUY 221953Z AUTO VRB06KT 10SM CLR 29/17 A2998 RMK AO2 SLP106
       T02890167

KDHT 221755Z 2218/2318 22009KT P6SM FEW250
     FM221900 19011KT P6SM FEW250
     FM230200 17010KT P6SM BKN250
     FM230800 19006KT P6SM SCT250=
METAR KDHT 222153Z AUTO 16014G19KT 10SM FEW060 32/14 A2995 RMK AO2
       SLP082 T03220144
METAR KDHT 222053Z AUTO 21011G19KT 180V240 10SM CLR 32/14 A2999 RMK AO2
       SLP093 T03170144 58021

Amarillo (KAMA) 08/22/19 22:22 UTC
Radar VAD winds      Height      Dir/Spd(kt)
                  17000 FT MSL...340/018
                  16000 FT MSL...333/017
                  15000 FT MSL...326/016
                  14800 FT MSL...319/013
                  14000 FT MSL...311/011
                  13000 FT MSL...314/012
                  12600 FT MSL...313/011
                  12000 FT MSL...303/009
                  11000 FT MSL...268/007
                  10800 FT MSL...262/008
                  10000 FT MSL...231/012
                   9200 FT MSL...229/012
                   9000 FT MSL...232/011
                   8000 FT MSL...227/011
                   8000 FT MSL...227/011
                   7000 FT MSL...180/012
                   7000 FT MSL...207/011
                   6200 FT MSL...189/012
                   6000 FT MSL...176/011
                   5400 FT MSL...172/011
                   5000 FT MSL...176/010
                   4700 FT MSL...165/010
                   4300 FT MSL...156/011
                   4000 FT MSL...168/012
                   4000 FT MSL...173/011

Amarillo Aviation Discussion
Issued at 2027 UTC Thursday, August 22, 2019

.AVIATION...18z TAF Cycle:
VFR conditions are expected through the period. Confidence in
storm impacts for any given TAF site has decreased, so have left
mention out of TAFs. There is still potential for isolated storms
to develop, but at this time the higher chance is east of the
terminals through the early evening hours. Will amend TAFs if
storm activity does develop further west. Some storms may try to
move out of NM later in the evening and overnight, so the next
forecast update may need to address this. Winds should be
generally be out of the south at 5 to 15 knots.
Ward


* * * * * New Mexico * * * * *

KFMN 221722Z 2218/2318 09010KT P6SM FEW250
     FM221900 24011KT P6SM SCT250
     FM222200 27014G24KT P6SM SCT150
     FM230200 30008KT P6SM SCT150
     FM230700 VRB05KT P6SM SKC
METAR KFMN 222153Z 27010G19KT 10SM CLR 34/M06 A2999 RMK AO2 SLP078
       T03441056
METAR KFMN 222053Z 31008G19KT 10SM CLR 33/M06 A3002 RMK AO2 SLP090
       T03331061 58017
METAR KFMN 221953Z 29010G17KT 10SM CLR 32/M01 A3004 RMK AO2 SLP097
       T03221006

SPECI KSKX 222217Z AUTO 02017G20KT 10SM BKN100 29/06 A3012 RMK AO2 PK
       WND 30026/2200 WSHFT 2157 LTG DSNT SW AND W
METAR KSKX 222156Z AUTO 24008KT 10SM FEW110 29/04 A3012 RMK AO2 LTG DSNT
       SW AND W SLP126 T02890039
METAR KSKX 222056Z AUTO 25011G17KT 10SM CLR 29/03 A3015 RMK AO2 LTG DSNT
       N AND E SLP135 6//// T02890028 58027

KLVS 221929Z 2219/2318 20014G22KT P6SM SCT070
     FM222000 22012G22KT P6SM VCTS BKN080CB
      TEMPO 2221/2223 VRB22G32KT -TSRA
     FM230000 13010KT P6SM BKN120
     FM230700 VRB06KT P6SM SKC
SPECI KLVS 222209Z AUTO 04010KT 10SM CLR 23/09 A3012 RMK AO2 LTG DSNT E
       AND SE T02330089
METAR KLVS 222153Z AUTO 03007KT 170V170 10SM VCTS FEW070 SCT090 25/04
       A3011 RMK AO2 PK WND 34035/2056 WSHFT 2048 LTG DSNT NE-SE
       RAB2054E50 TSB17E32 SLP094 P0003 T02500044
SPECI KLVS 222138Z AUTO 01019G33KT 7SM VCTS RA SCT075 OVC090 19/07 A3013
       RMK AO2 PK WND 34035/2056 WSHFT 2048 LTG DSNT NE-S RAB2054
       TSB17E32 PRESFR P0003 T01940072

SPECI KRTN 222217Z AUTO 03014KT 10SM FEW070 BKN090 BKN120 24/04 A3008
       RMK AO2 LTG DSNT SE-SW TSB2156E11 T02440044
SPECI KRTN 222202Z AUTO 01014G20KT 10SM TS CLR 26/04 A3008 RMK AO2 LTG
       DSNT S AND NW TSB2156 T02560044
METAR KRTN 222153Z AUTO 36012KT 10SM VCTS CLR 26/06 A3007 RMK AO2 PK WND
       34027/2123 LTG DSNT S AND SW SLP103 T02560061

METAR KCAO 222155Z AUTO 17017G24KT 10SM CLR 31/13 A3001 RMK AO2 SLP092
       T03060133
METAR KCAO 222055Z AUTO 17015G24KT 10SM CLR 31/13 A3002 RMK AO2 SLP097
        T03060133 58018
METAR KCAO 221955Z AUTO 17012G23KT 10SM CLR 29/12 A3005 RMK AO2 SLP106
       T02940117

Albuquerque (KABX) 08/22/19 22:15 UTC
Radar VAD winds      Height      Dir/Spd(kt)
                  26500 FT MSL...315/009
                  26000 FT MSL...032/003
                  22000 FT MSL...281/013
                  20000 FT MSL...288/015
                  19800 FT MSL...289/019
                  19000 FT MSL...294/016
                  18000 FT MSL...288/017
                  17100 FT MSL...297/015
                  17000 FT MSL...295/017
                  16000 FT MSL...296/015
                  15000 FT MSL...300/017
                  14900 FT MSL...298/014
                  14000 FT MSL...293/016
                  13000 FT MSL...287/015
                  13000 FT MSL...291/014
                  12000 FT MSL...294/012
                  11500 FT MSL...288/011
                  11000 FT MSL...276/012
                  10200 FT MSL...282/012
                  10000 FT MSL...267/011
                   9200 FT MSL...263/012
                   9000 FT MSL...257/011
                   8300 FT MSL...257/010
                   8000 FT MSL...248/006
                   7600 FT MSL...248/010
                   7000 FT MSL...245/009
                   7000 FT MSL...242/011

Albuquerque Aviation Discussion
Issued at 2132 UTC Thursday, August 22, 2019

.AVIATION...
18Z TAF CYCLE
VFR conditions to prevail across western portions of the state today,
as drier air moves in from the northwest. Shower and thunderstorm
coverage will move further east today, with KLVS likely to see
thunderstorms by early afternoon, followed by KTCC and KROW later
this afternoon (although confidence is much less for these two
sites). Brief MVFR conditions are possible in stronger storms, along
with gusty erratic winds and the chance for small hail.
31

* * * * * Winds and Temperatures Aloft Forecasts * * * * *

DATA BASED ON 221200Z
VALID 221800Z   FOR USE 1700-2100Z. TEMPS NEG ABV 24000
FT  3000    6000   9000    12000   18000   24000  30000  34000  39000
SLC      9900    2111+17 2323+10 2437-11 2525-20 243336 243646 252956
BCE                      2321+10 2522-09 2727-18 262835 283044 263357
LND              2112+19 2316+12 2424-08 2121-22 242435 242846 243358
RKS              2521    2528+11 2218-09 2020-22 252735 243346 243658
GJT              2215+18 2421+11 2317-09 2214-21 262434 262145 273358
FMN              1906+17 2615+11 2417-09 2914-19 301634 302244 283457
ABQ              2710+17 2915+11 2711-08 3117-18 301734 302243 303056
MBW              2417    2523+12 2619-08 2713-22 302536 293046 292957
DEN              2708+19 2908+12 3107-09 2614-22 292635 303245 293958
PUB              2313+17 2512+11 3208-09 2618-20 292035 292145 302157
ALS                      2713+11 2609-08 2711-20 291735 302444 303057
TCC      2109    2515+14 2711+08 2912-07 2912-18 271533 272144 272856
BFF      1629    2123+17 2412+11 3017-09 2818-24 281837 282145 281655
GLD      1711    2117+15 2315+08 2608-09 2714-20 272435 262445 272857
GCK      1710+17 1811+14 2106+07 3405-09 2612-19 252534 242844 262856
GAG      1815+19 2217+12 2415+06 2708-07 2616-17 243332 223842 224157
AMA      2009    2411+13 2310+07 2714-07 2418-17 243032 233043 262556
---------------------------------------------------------------------

DATA BASED ON 221200Z
VALID 230000Z   FOR USE 2100-0600Z. TEMPS NEG ABV 24000
FT  3000    6000   9000    12000   18000   24000  30000  34000  39000
SLC      9900    2614+17 2426+10 2533-09 2837-20 283336 303546 293053
BCE                      2417+11 2719-07 2725-19 312734 302945 292755
LND              3011+16 2611+09 2524-09 2423-21 232536 213247 223757
RKS              2619    2620+11 2525-10 2525-21 242936 223446 243356
GJT              2613+20 2419+11 2327-09 2721-19 232734 232945 243458
FMN              2711+21 2712+12 2422-08 2632-18 271533 252144 253857
ABQ              2205+21 2707+12 2920-07 2819-17 281833 291843 282256
MBW              2620    2721+12 2518-08 2222-21 232334 242845 233359
DEN              2112+18 2009+11 2312-08 2321-20 252734 263145 273558
PUB              1809+19 2210+11 2713-08 2619-19 271933 282544 283458
ALS                      2307+11 2623-08 2515-18 272233 272044 273657
TCC      1911    1912+17 2605+09 3316-07 2817-17 282233 312143 312656
BFF      1630    2014+18 2508+11 2916-09 2821-21 303435 304245 304357
GLD      1524    2119+16 2410+10 3316-09 2920-20 293034 293645 293457
GCK      1516+20 2207+15 2606+08 3211-08 2918-19 282234 282244 262257
GAG      1509+21 1911+13 2813+07 2912-07 2718-18 272833 253143 232856
AMA      1811    1911+15 2312+07 3014-07 2813-18 272533 262543 262456
---------------------------------------------------------------------

DATA BASED ON 221200Z
VALID 231200Z   FOR USE 0600-1700Z. TEMPS NEG ABV 24000
FT  3000    6000   9000    12000   18000   24000  30000  34000  39000
SLC      9900    2906+12 2621+06 2834-08 3242-19 336735 327146 336155
BCE                      2618+09 2715-07 3225-17 343834 334546 334256
LND              9900+07 2214+05 2334-10 2333-24 232839 232347 272050
RKS              3112    2517+07 2436-11 2535-24 253339 273247 283151
GJT              2418+18 2419+10 2420-09 2725-22 293637 303946 293554
FMN              2918+17 2716+09 2418-08 2818-19 292735 293145 273554
ABQ              3315+18 3315+10 2613-08 2818-18 262834 263344 264654
MBW              2613    2414+10 2522-10 2219-22 202338 213048 232955
DEN              2307+18 2815+11 3017-10 2814-21 242136 222746 232956
PUB              2411+18 2614+10 2817-09 2517-20 232535 232945 243456
ALS                      2817+11 2618-10 2718-20 272335 262545 263255
TCC      2220    2514+16 2812+09 3007-08 2612-19 252433 252843 264256
BFF      1920    2412+17 2608+10 1818-10 1814-21 212536 212847 212357
GLD      2027    2017+15 2112+09 2114-09 2509-19 242134 233545 233758
GCK      1917+22 2111+14 9900+07 2309-08 9900-18 221533 232244 253058
GAG      2317+21 2611+13 2811+05 2105-07 2511-17 231033 231344 262057
AMA      2319    2508+14 3210+08 2810-07 2613-18 241333 241743 262556
---------------------------------------------------------------------

This product is updated automatically at approximately 10, 30 and 50
minutes after each hour, 24 hours per day, 7 days per week.  It may
become unavailable at times due to system outages without prior notice.
Users are advised to check the time at the top of the product to ensure
that it is current.  Furthermore, content and format of the product are
subject to change without prior notice.

Comments and suggestions are welcome and should be directed to one of
the addresses or phone numbers shown at the bottom of this page.  In
order to expedite a response to comments or suggestions, be sure to
mention your interest in the hot-air balloon forecast.


USA.gov is the U.S. government's official web portal to all federal, state and local government web resources and services.